createdAt,value
2018-05-27T00:02:23.328Z,65.65
2018-05-27T00:04:51.650Z,66.11
2018-05-27T00:07:20.064Z,65.76
2018-05-27T00:09:48.407Z,66.38
2018-05-27T00:12:16.737Z,66.23
2018-05-27T00:14:45.097Z,66.92
2018-05-27T00:17:13.473Z,67.00
2018-05-27T00:19:41.795Z,67.28
2018-05-27T00:22:10.135Z,66.84
2018-05-27T00:24:38.449Z,67.76
2018-05-27T00:27:06.810Z,67.77
2018-05-27T00:29:35.175Z,68.03
2018-05-27T00:32:04.362Z,68.49
2018-05-27T00:34:32.717Z,68.81
2018-05-27T00:37:01.792Z,69.11
2018-05-27T00:39:30.167Z,68.97
2018-05-27T00:41:58.539Z,69.18
2018-05-27T00:44:26.896Z,69.43
2018-05-27T00:46:55.221Z,70.05
2018-05-27T00:49:24.364Z,70.19
2018-05-27T00:51:53.569Z,70.25
2018-05-27T00:54:21.964Z,71.08
2018-05-27T00:56:50.332Z,70.82
2018-05-27T00:59:18.668Z,70.95
2018-05-27T01:01:47.050Z,71.05
2018-05-27T01:04:15.384Z,72.23
2018-05-27T01:06:43.754Z,72.02
2018-05-27T01:09:12.104Z,71.64
2018-05-27T01:11:40.469Z,72.25
2018-05-27T01:14:08.804Z,72.29
2018-05-27T01:16:37.170Z,72.89
2018-05-27T01:19:05.493Z,73.11
2018-05-27T01:21:33.820Z,72.56
2018-05-27T01:24:02.200Z,72.52
2018-05-27T01:26:30.527Z,72.31
2018-05-27T01:28:58.844Z,72.13
2018-05-27T01:31:27.202Z,72.13
2018-05-27T01:33:55.923Z,72.09
2018-05-27T01:36:24.292Z,72.25
2018-05-27T01:38:52.599Z,72.68
2018-05-27T01:41:21.721Z,72.62
2018-05-27T01:43:50.085Z,72.85
2018-05-27T01:46:19.196Z,73.34
2018-05-27T01:48:47.576Z,74.12
2018-05-27T01:51:16.678Z,74.87
2018-05-27T01:53:45.055Z,74.12
2018-05-27T01:56:13.792Z,73.87
2018-05-27T01:58:42.123Z,73.77
2018-05-27T02:01:10.484Z,73.65
2018-05-27T02:03:38.847Z,73.72
2018-05-27T02:06:07.987Z,74.07
2018-05-27T02:08:36.327Z,74.21
2018-05-27T02:11:05.111Z,74.36
2018-05-27T02:13:33.426Z,74.45
2018-05-27T02:16:01.742Z,74.52
2018-05-27T02:18:30.083Z,74.62
2018-05-27T02:20:58.404Z,74.98
2018-05-27T02:23:26.771Z,75.07
2018-05-27T02:25:55.120Z,75.23
2018-05-27T02:28:23.496Z,76.40
2018-05-27T02:30:51.827Z,76.40
2018-05-27T02:33:20.188Z,76.92
2018-05-27T02:35:48.545Z,77.04
2018-05-27T02:38:16.960Z,77.22
2018-05-27T02:40:46.047Z,77.54
2018-05-27T02:43:15.176Z,78.37
2018-05-27T02:45:43.548Z,79.02
2018-05-27T02:48:11.896Z,79.32
2018-05-27T02:50:40.266Z,79.32
2018-05-27T02:53:08.633Z,78.82
2018-05-27T02:55:37.002Z,78.32
2018-05-27T02:58:05.336Z,77.93
2018-05-27T03:00:35.223Z,77.79
2018-05-27T03:03:04.314Z,77.99
2018-05-27T03:05:32.688Z,78.09
2018-05-27T03:08:01.040Z,77.83
2018-05-27T03:10:29.398Z,77.82
2018-05-27T03:12:57.750Z,77.81
2018-05-27T03:15:26.118Z,77.88
2018-05-27T03:17:55.248Z,78.27
2018-05-27T03:20:23.577Z,78.02
2018-05-27T03:22:52.712Z,77.90
2018-05-27T03:25:21.067Z,78.23
2018-05-27T03:27:50.219Z,77.71
2018-05-27T03:30:18.605Z,77.32
2018-05-27T03:32:46.930Z,77.34
2018-05-27T03:35:15.304Z,77.30
2018-05-27T03:37:43.652Z,77.06
2018-05-27T03:40:12.031Z,77.44
2018-05-27T03:42:40.383Z,77.19
2018-05-27T03:45:08.759Z,76.75
2018-05-27T03:47:37.091Z,76.59
2018-05-27T03:50:05.455Z,76.44
2018-05-27T03:52:34.243Z,76.37
2018-05-27T03:55:02.591Z,76.19
2018-05-27T03:57:30.960Z,76.09
2018-05-27T04:00:00.978Z,75.95
2018-05-27T04:02:29.329Z,76.00
2018-05-27T04:05:15.512Z,76.33
2018-05-27T04:08:01.538Z,76.06
2018-05-27T04:10:29.870Z,75.69
2018-05-27T04:12:58.989Z,76.23
2018-05-27T04:15:27.325Z,75.68
2018-05-27T04:17:56.447Z,75.66
2018-05-27T04:20:24.773Z,74.92
2018-05-27T04:22:53.094Z,74.33
2018-05-27T04:25:21.461Z,73.93
2018-05-27T04:27:50.567Z,73.62
2018-05-27T04:30:18.891Z,73.17
2018-05-27T04:32:47.261Z,72.67
2018-05-27T04:35:15.611Z,72.07
2018-05-27T04:37:43.985Z,71.73
2018-05-27T04:40:12.345Z,70.13
2018-05-27T04:42:41.493Z,70.02
2018-05-27T04:45:09.817Z,69.58
2018-05-27T04:47:38.967Z,69.26
2018-05-27T04:50:07.322Z,68.88
2018-05-27T04:52:35.658Z,68.49
2018-05-27T04:55:04.811Z,68.43
2018-05-27T04:57:33.146Z,67.96
2018-05-27T05:00:02.307Z,67.41
2018-05-27T05:02:30.639Z,67.14
2018-05-27T05:04:58.974Z,66.97
2018-05-27T05:07:27.358Z,67.34
2018-05-27T05:09:55.715Z,67.18
2018-05-27T05:12:24.882Z,66.94
2018-05-27T05:14:53.268Z,66.66
2018-05-27T05:17:21.622Z,65.94
2018-05-27T05:19:49.975Z,65.72
2018-05-27T05:22:19.118Z,65.27
2018-05-27T05:24:47.482Z,62.91
2018-05-27T05:27:15.836Z,62.33
2018-05-27T05:29:44.990Z,61.99
2018-05-27T05:32:13.339Z,61.54
2018-05-27T05:34:41.707Z,59.79
2018-05-27T05:37:10.043Z,59.87
2018-05-27T05:39:38.426Z,59.79
2018-05-27T05:42:06.762Z,59.83
2018-05-27T05:44:35.132Z,60.08
2018-05-27T05:47:03.457Z,60.05
2018-05-27T05:49:31.821Z,60.16
2018-05-27T05:52:00.188Z,59.33
2018-05-27T05:54:28.542Z,58.49
2018-05-27T05:56:56.918Z,57.42
2018-05-27T05:59:25.276Z,57.74
2018-05-27T06:01:53.597Z,58.16
2018-05-27T06:04:21.964Z,58.13
2018-05-27T06:06:50.307Z,58.09
2018-05-27T06:09:18.625Z,57.19
2018-05-27T06:11:47.043Z,56.92
2018-05-27T06:14:16.238Z,57.09
2018-05-27T06:16:45.340Z,57.48
2018-05-27T06:19:14.511Z,56.92
2018-05-27T06:21:42.886Z,57.09
2018-05-27T06:24:11.245Z,56.20
2018-05-27T06:26:39.619Z,57.09
2018-05-27T06:29:07.995Z,56.94
2018-05-27T06:31:36.368Z,56.51
2018-05-27T06:34:04.732Z,55.67
2018-05-27T06:36:33.206Z,55.24
2018-05-27T06:39:01.675Z,54.88
2018-05-27T06:41:30.064Z,55.13
2018-05-27T06:43:58.400Z,54.43
2018-05-27T06:46:26.772Z,53.08
2018-05-27T06:48:55.170Z,53.30
2018-05-27T06:51:24.323Z,52.58
2018-05-27T06:53:52.755Z,52.99
2018-05-27T06:56:21.908Z,52.78
2018-05-27T06:58:50.276Z,52.42
2018-05-27T07:01:18.653Z,52.65
2018-05-27T07:03:47.014Z,52.18
2018-05-27T07:06:16.090Z,51.14
2018-05-27T07:08:44.552Z,51.41
2018-05-27T07:11:12.885Z,50.86
2018-05-27T07:13:41.454Z,50.00
2018-05-27T07:16:13.053Z,50.24
2018-05-27T07:18:42.483Z,50.58
2018-05-27T07:21:10.981Z,50.34
2018-05-27T07:23:43.670Z,50.20
2018-05-27T07:29:01.094Z,48.84
2018-05-27T07:31:29.582Z,48.24
2018-05-27T07:34:12.949Z,48.07
2018-05-27T07:39:52.383Z,47.17
2018-05-27T07:42:21.965Z,46.81
2018-05-27T07:44:50.418Z,47.43
2018-05-27T07:47:19.597Z,47.69
2018-05-27T07:49:47.963Z,45.91
2018-05-27T07:52:16.513Z,46.67
2018-05-27T07:54:44.885Z,45.50
2018-05-27T07:57:13.225Z,46.33
2018-05-27T07:59:41.637Z,44.47
2018-05-27T08:02:10.007Z,45.33
2018-05-27T08:04:38.320Z,45.83
2018-05-27T08:07:06.718Z,44.67
2018-05-27T08:09:35.218Z,44.45
2018-05-27T08:12:03.924Z,44.18
2018-05-27T08:14:33.329Z,44.61
2018-05-27T08:17:02.615Z,45.50
2018-05-27T08:19:33.113Z,43.83
2018-05-27T08:22:01.830Z,43.30
2018-05-27T08:24:31.345Z,43.27
2018-05-27T08:27:00.494Z,43.68
2018-05-27T08:29:28.884Z,44.51
2018-05-27T08:31:57.772Z,43.22
2018-05-27T08:34:26.239Z,43.74
2018-05-27T08:36:55.915Z,44.20
2018-05-27T08:39:26.670Z,44.29
2018-05-27T08:41:56.041Z,43.53
2018-05-27T08:44:27.555Z,40.46
2018-05-27T08:46:55.963Z,40.15
2018-05-27T08:49:26.833Z,40.05
2018-05-27T08:51:55.733Z,39.34
2018-05-27T08:54:25.230Z,38.77
2018-05-27T08:56:53.573Z,39.62
2018-05-27T08:59:22.746Z,39.80
2018-05-27T09:01:51.115Z,39.61
2018-05-27T09:04:19.448Z,41.18
2018-05-27T09:06:47.791Z,40.44
2018-05-27T09:09:17.185Z,39.56
2018-05-27T09:11:46.353Z,40.22
2018-05-27T09:14:14.683Z,39.72
2018-05-27T09:16:43.121Z,40.31
2018-05-27T09:19:11.823Z,40.65
2018-05-27T09:21:40.981Z,38.99
2018-05-27T09:24:10.479Z,39.11
2018-05-27T09:26:38.827Z,38.71
2018-05-27T09:29:07.952Z,38.56
2018-05-27T09:31:36.329Z,38.20
2018-05-27T09:34:04.682Z,37.50
2018-05-27T09:36:33.099Z,36.76
2018-05-27T09:39:01.469Z,36.29
2018-05-27T09:41:29.845Z,37.23
2018-05-27T09:43:58.216Z,35.10
2018-05-27T09:46:26.712Z,36.57
2018-05-27T09:48:55.059Z,35.75
2018-05-27T09:51:23.409Z,35.63
2018-05-27T09:53:52.569Z,35.35
2018-05-27T09:56:20.936Z,36.76
2018-05-27T09:58:57.968Z,36.37
2018-05-27T10:01:34.255Z,34.38
2018-05-27T10:04:07.800Z,33.84
2018-05-27T10:06:43.696Z,34.50
2018-05-27T10:09:19.288Z,31.68
2018-05-27T10:11:47.963Z,30.02
2018-05-27T10:14:16.325Z,29.77
2018-05-27T10:16:44.660Z,30.62
2018-05-27T10:19:13.026Z,30.04
2018-05-27T10:21:41.400Z,29.67
2018-05-27T10:24:09.745Z,28.55
2018-05-27T10:26:38.075Z,29.59
2018-05-27T10:29:06.435Z,30.72
2018-05-27T10:31:34.828Z,28.66
2018-05-27T10:34:03.235Z,28.24
2018-05-27T10:36:33.784Z,27.38
2018-05-27T10:39:06.666Z,27.25
2018-05-27T10:41:38.901Z,27.78
2018-05-27T10:44:09.893Z,26.17
2018-05-27T10:46:40.006Z,29.71
2018-05-27T10:49:08.405Z,30.19
2018-05-27T10:51:36.745Z,30.71
2018-05-27T10:54:05.068Z,31.29
2018-05-27T10:56:33.430Z,29.71
2018-05-27T10:59:01.773Z,29.72
2018-05-27T11:01:30.140Z,30.33
2018-05-27T11:03:59.436Z,30.29
2018-05-27T11:06:27.828Z,31.44
2018-05-27T11:08:56.163Z,30.01
2018-05-27T11:11:24.529Z,29.10
2018-05-27T11:13:52.862Z,29.06
2018-05-27T11:16:21.243Z,30.15
2018-05-27T11:18:49.581Z,30.99
2018-05-27T11:21:18.430Z,31.00
2018-05-27T11:23:46.758Z,31.14
2018-05-27T11:26:15.968Z,31.27
2018-05-27T11:28:44.334Z,31.45
2018-05-27T11:31:13.802Z,32.12
2018-05-27T11:33:42.201Z,31.98
2018-05-27T11:36:10.607Z,32.14
2018-05-27T11:38:38.966Z,32.02
2018-05-27T11:41:07.318Z,31.16
2018-05-27T11:43:35.707Z,31.57
2018-05-27T11:46:04.082Z,31.52
2018-05-27T11:48:32.532Z,31.47
2018-05-27T11:51:00.859Z,30.95
2018-05-27T11:53:29.224Z,31.66
2018-05-27T11:55:57.597Z,30.70
2018-05-27T11:58:25.952Z,30.58
2018-05-27T12:00:55.132Z,30.86
2018-05-27T12:03:23.505Z,31.01
2018-05-27T12:05:51.859Z,29.86
2018-05-27T12:08:21.002Z,29.25
2018-05-27T12:10:49.333Z,28.45
2018-05-27T12:13:18.481Z,28.03
2018-05-27T12:15:46.799Z,27.24
2018-05-27T12:18:15.926Z,26.85
2018-05-27T12:20:44.266Z,26.43
2018-05-27T12:23:13.411Z,26.59
2018-05-27T12:25:41.782Z,25.77
2018-05-27T12:28:10.173Z,26.30
2018-05-27T12:30:38.496Z,26.36
2018-05-27T12:33:06.827Z,27.13
2018-05-27T12:35:35.191Z,26.82
2018-05-27T12:38:03.539Z,26.78
2018-05-27T12:40:32.685Z,25.67
2018-05-27T12:43:01.075Z,26.24
2018-05-27T12:45:29.451Z,27.53
2018-05-27T12:47:57.802Z,27.54
2018-05-27T12:50:26.125Z,28.02
2018-05-27T12:52:54.524Z,27.38
2018-05-27T12:55:22.869Z,27.84
2018-05-27T12:57:51.222Z,28.74
2018-05-27T13:00:19.559Z,29.08
2018-05-27T13:02:48.779Z,29.06
2018-05-27T13:05:17.171Z,30.35
2018-05-27T13:07:45.543Z,31.01
2018-05-27T13:10:13.955Z,31.62
2018-05-27T13:12:42.477Z,31.89
2018-05-27T13:15:10.882Z,31.93
2018-05-27T13:17:39.301Z,32.33
2018-05-27T13:20:08.399Z,32.07
2018-05-27T13:22:36.791Z,32.57
2018-05-27T13:25:05.223Z,33.56
2018-05-27T13:27:33.619Z,33.61
2018-05-27T13:30:01.957Z,33.58
2018-05-27T13:32:30.339Z,32.65
2018-05-27T13:34:58.729Z,32.61
2018-05-27T13:37:27.117Z,32.56
2018-05-27T13:39:55.490Z,33.05
2018-05-27T13:42:23.873Z,32.68
2018-05-27T13:44:52.231Z,32.68
2018-05-27T13:47:20.613Z,32.81
2018-05-27T13:49:48.944Z,32.33
2018-05-27T13:52:17.329Z,31.08
2018-05-27T13:54:45.711Z,31.17
2018-05-27T13:57:14.853Z,29.34
2018-05-27T13:59:43.238Z,30.94
2018-05-27T14:02:11.615Z,28.92
2018-05-27T14:04:40.764Z,29.25
2018-05-27T14:07:10.008Z,30.41
2018-05-27T14:09:39.431Z,31.07
2018-05-27T14:12:08.198Z,31.11
2018-05-27T14:14:36.551Z,31.34
2018-05-27T14:17:04.935Z,30.67
2018-05-27T14:19:33.261Z,31.05
2018-05-27T14:22:01.693Z,31.61
2018-05-27T14:24:30.025Z,31.16
2018-05-27T14:26:58.462Z,30.56
2018-05-27T14:29:26.789Z,29.78
2018-05-27T14:31:55.129Z,28.31
2018-05-27T14:34:23.511Z,28.75
2018-05-27T14:36:51.869Z,28.75
2018-05-27T14:39:20.223Z,29.73
2018-05-27T14:41:48.590Z,30.42
2018-05-27T14:44:17.726Z,30.64
2018-05-27T14:46:46.342Z,30.50
2018-05-27T14:49:14.667Z,30.93
2018-05-27T14:51:43.042Z,31.23
2018-05-27T14:54:11.362Z,31.24
2018-05-27T14:56:39.709Z,31.52
2018-05-27T14:59:08.031Z,31.70
2018-05-27T15:01:36.384Z,32.17
2018-05-27T15:04:04.778Z,32.14
2018-05-27T15:06:33.155Z,32.12
2018-05-27T15:09:01.494Z,31.80
2018-05-27T15:11:29.885Z,31.84
2018-05-27T15:13:58.274Z,32.22
2018-05-27T15:16:26.617Z,32.33
2018-05-27T15:18:54.983Z,32.03
2018-05-27T15:21:23.318Z,32.15
2018-05-27T15:23:51.646Z,32.26
2018-05-27T15:26:20.407Z,31.52
2018-05-27T15:28:48.746Z,31.43
2018-05-27T15:31:17.126Z,31.21
2018-05-27T15:33:45.452Z,30.76
2018-05-27T15:36:14.525Z,30.50
2018-05-27T15:38:42.904Z,30.31
2018-05-27T15:41:11.241Z,31.00
2018-05-27T15:43:39.620Z,32.29
2018-05-27T15:46:07.984Z,33.06
2018-05-27T15:48:36.363Z,32.64
2018-05-27T15:51:04.693Z,32.06
2018-05-27T15:53:33.040Z,30.78
2018-05-27T15:56:01.428Z,32.30
2018-05-27T15:58:29.776Z,31.13
2018-05-27T16:00:58.137Z,31.98
2018-05-27T16:03:26.504Z,32.20
2018-05-27T16:05:55.641Z,32.50
2018-05-27T16:08:23.989Z,33.41
2018-05-27T16:10:53.806Z,32.96
2018-05-27T16:13:22.272Z,32.87
2018-05-27T16:15:51.434Z,32.53
2018-05-27T16:18:19.769Z,32.87
2018-05-27T16:20:48.162Z,32.63
2018-05-27T16:23:16.505Z,32.92
2018-05-27T16:25:44.880Z,33.46
2018-05-27T16:28:13.307Z,34.54
2018-05-27T16:30:41.714Z,34.13
2018-05-27T16:33:10.094Z,34.44
2018-05-27T16:35:38.469Z,34.11
2018-05-27T16:38:06.853Z,33.32
2018-05-27T16:40:35.223Z,33.01
2018-05-27T16:43:03.597Z,33.72
2018-05-27T16:45:32.559Z,33.86
2018-05-27T16:48:00.955Z,33.00
2018-05-27T16:50:29.346Z,32.90
2018-05-27T16:52:57.694Z,32.56
2018-05-27T16:55:26.099Z,32.75
2018-05-27T16:57:54.493Z,32.06
2018-05-27T17:00:22.846Z,30.83
2018-05-27T17:02:51.205Z,30.95
2018-05-27T17:05:19.543Z,31.16
2018-05-27T17:07:48.675Z,31.74
2018-05-27T17:10:17.030Z,32.16
2018-05-27T17:12:45.409Z,32.44
2018-05-27T17:15:13.725Z,32.42
2018-05-27T17:17:42.109Z,32.43
2018-05-27T17:20:10.545Z,32.37
2018-05-27T17:22:38.934Z,29.83
2018-05-27T17:25:07.316Z,29.59
2018-05-27T17:27:35.709Z,28.80
2018-05-27T17:30:04.079Z,30.12
2018-05-27T17:32:32.445Z,29.95
2018-05-27T17:35:00.820Z,30.30
2018-05-27T17:37:29.178Z,30.73
2018-05-27T17:39:58.365Z,31.55
2018-05-27T17:42:26.708Z,31.57
2018-05-27T17:44:55.088Z,32.16
2018-05-27T17:47:23.507Z,32.72
2018-05-27T17:49:51.927Z,32.93
2018-05-27T17:52:20.251Z,31.79
2018-05-27T17:54:48.597Z,30.93
2018-05-27T17:57:17.019Z,32.10
2018-05-27T17:59:46.178Z,32.57
2018-05-27T18:02:14.562Z,32.20
2018-05-27T18:04:42.892Z,32.32
2018-05-27T18:07:12.133Z,32.65
2018-05-27T18:09:40.498Z,32.84
2018-05-27T18:12:08.810Z,33.02
2018-05-27T18:14:37.175Z,34.83
2018-05-27T18:17:05.913Z,36.27
2018-05-27T18:19:34.336Z,36.78
2018-05-27T18:22:02.651Z,37.33
2018-05-27T18:24:31.793Z,36.78
2018-05-27T18:27:00.961Z,37.77
2018-05-27T18:29:29.317Z,38.34
2018-05-27T18:31:58.421Z,38.70
2018-05-27T18:34:27.559Z,39.00
2018-05-27T18:36:55.931Z,39.07
2018-05-27T18:39:24.285Z,38.66
2018-05-27T18:41:52.654Z,38.60
2018-05-27T18:44:21.697Z,38.71
2018-05-27T18:46:50.068Z,39.60
2018-05-27T18:49:19.287Z,39.50
2018-05-27T18:51:47.661Z,39.79
2018-05-27T18:54:16.020Z,40.37
2018-05-27T18:56:44.496Z,40.96
2018-05-27T18:59:12.850Z,41.08
2018-05-27T19:01:42.522Z,41.43
2018-05-27T19:04:11.738Z,42.01
2018-05-27T19:06:40.722Z,42.39
2018-05-27T19:09:09.866Z,43.31
2018-05-27T19:11:38.369Z,43.56
2018-05-27T19:14:06.803Z,44.69
2018-05-27T19:16:35.661Z,44.41
2018-05-27T19:19:05.997Z,44.51
2018-05-27T19:21:36.163Z,44.33
2018-05-27T19:24:04.718Z,44.43
2018-05-27T19:26:33.162Z,45.32
2018-05-27T19:29:01.597Z,45.20
2018-05-27T19:31:30.152Z,45.23
2018-05-27T19:33:58.659Z,45.54
2018-05-27T19:36:27.235Z,45.31
2018-05-27T19:38:55.716Z,45.44
2018-05-27T19:41:24.128Z,46.02
2018-05-27T19:43:54.612Z,46.25
2018-05-27T19:46:22.988Z,46.58
2018-05-27T19:48:51.851Z,46.45
2018-05-27T19:51:20.281Z,47.29
2018-05-27T19:53:48.696Z,47.75
2018-05-27T19:56:17.187Z,48.33
2018-05-27T19:58:47.115Z,48.69
2018-05-27T20:01:16.368Z,49.47
2018-05-27T20:03:44.787Z,50.23
2018-05-27T20:06:13.156Z,50.43
2018-05-27T20:08:41.529Z,51.09
2018-05-27T20:11:10.297Z,51.60
2018-05-27T20:13:39.570Z,51.74
2018-05-27T20:16:07.935Z,51.76
2018-05-27T20:18:36.312Z,51.88
2018-05-27T20:21:04.674Z,52.47
2018-05-27T20:23:33.809Z,52.69
2018-05-27T20:26:02.189Z,53.58
2018-05-27T20:28:30.557Z,54.06
2018-05-27T20:30:58.891Z,54.08
2018-05-27T20:33:28.024Z,54.35
2018-05-27T20:35:56.398Z,54.08
2018-05-27T20:38:24.784Z,54.42
2018-05-27T20:40:53.158Z,54.81
2018-05-27T20:43:21.542Z,55.97
2018-05-27T20:45:49.903Z,55.67
2018-05-27T20:48:18.246Z,55.66
2018-05-27T20:50:46.675Z,56.05
2018-05-27T20:53:15.064Z,55.93
2018-05-27T20:55:43.437Z,55.80
2018-05-27T20:58:11.819Z,55.84
2018-05-27T21:00:40.188Z,56.76
2018-05-27T21:03:08.541Z,57.09
2018-05-27T21:05:37.665Z,57.96
2018-05-27T21:08:06.030Z,58.15
2018-05-27T21:10:34.738Z,58.60
2018-05-27T21:13:03.121Z,58.57
2018-05-27T21:15:31.499Z,57.84
2018-05-27T21:17:59.868Z,58.46
2018-05-27T21:20:28.225Z,58.58
2018-05-27T21:22:56.568Z,59.01
2018-05-27T21:25:24.942Z,59.13
2018-05-27T21:27:53.273Z,59.75
2018-05-27T21:30:22.572Z,60.39
2018-05-27T21:32:51.695Z,60.22
2018-05-27T21:35:20.565Z,60.30
2018-05-27T21:37:48.895Z,60.28
2018-05-27T21:40:18.738Z,60.38
2018-05-27T21:42:47.107Z,60.40
2018-05-27T21:45:15.487Z,60.08
2018-05-27T21:47:43.882Z,59.99
2018-05-27T21:50:12.362Z,60.84
2018-05-27T21:52:40.730Z,61.24
2018-05-27T21:55:09.102Z,60.62
2018-05-27T21:57:37.474Z,60.72
2018-05-27T22:00:06.567Z,60.89
2018-05-27T22:02:34.930Z,61.02
2018-05-27T22:05:04.079Z,61.22
2018-05-27T22:07:32.462Z,61.39
2018-05-27T22:10:01.617Z,61.58
2018-05-27T22:12:30.006Z,61.84
2018-05-27T22:14:58.345Z,62.24
2018-05-27T22:17:26.709Z,62.00
2018-05-27T22:19:55.021Z,61.98
2018-05-27T22:22:24.160Z,61.89
2018-05-27T22:24:52.479Z,61.78
2018-05-27T22:27:21.568Z,62.00
2018-05-27T22:29:49.965Z,62.17
2018-05-27T22:32:19.114Z,62.25
2018-05-27T22:34:47.441Z,63.01
2018-05-27T22:37:16.590Z,63.02
2018-05-27T22:39:44.958Z,62.90
2018-05-27T22:42:13.283Z,63.35
2018-05-27T22:44:42.423Z,63.46
2018-05-27T22:47:10.814Z,64.18
2018-05-27T22:49:39.125Z,63.83
2018-05-27T22:52:07.538Z,64.09
2018-05-27T22:54:35.853Z,64.59
2018-05-27T22:57:04.212Z,65.11
2018-05-27T22:59:32.574Z,64.80
2018-05-27T23:02:00.923Z,65.33
2018-05-27T23:04:30.062Z,65.31
2018-05-27T23:06:58.388Z,64.91
2018-05-27T23:09:26.742Z,64.94
2018-05-27T23:11:55.123Z,64.88
2018-05-27T23:14:23.451Z,65.44
2018-05-27T23:16:51.819Z,65.06
2018-05-27T23:19:21.334Z,65.45
2018-05-27T23:21:49.661Z,65.71
2018-05-27T23:24:18.035Z,65.59
2018-05-27T23:26:46.353Z,65.78
2018-05-27T23:29:15.487Z,65.40
2018-05-27T23:31:43.856Z,65.51
2018-05-27T23:34:12.190Z,65.41
2018-05-27T23:36:41.332Z,65.34
2018-05-27T23:39:09.684Z,65.63
2018-05-27T23:41:38.075Z,65.78
2018-05-27T23:44:06.392Z,65.98
2018-05-27T23:46:34.744Z,66.00
2018-05-27T23:49:03.133Z,66.02
2018-05-27T23:51:31.526Z,66.17
2018-05-27T23:53:59.865Z,66.76
2018-05-27T23:56:28.263Z,66.61
2018-05-27T23:58:56.633Z,66.43
